Tiempo atmosférico en la estación meteorológica de Castuera , Badajoz (512 m.)



Fecha
DESCASC
Temp. máxima en grados centígrados (hora)
DESCASC
Temp. mínima en grados centígrados (hora)
DESCASC
Temp. media en grados centígrados
DESCASC
Racha de viento máxima en m/sg (hora)
DESCASC
Velocidad máxima media en intervalos de 10 minutos(hora)
DESCASC
Precipitaciones diarias en mm
DESCASC
Precipitaciones de 00:00 a 06:00 en mm
DESCASC
Precipitaciones de 06:00 a 12:00 en mm
DESCASC
Precipitaciones de 12:00 a 18:00 en mm
DESCASC
Precipitaciones de 18:00 a 24:00 en mm
DESCASC
02-04-2020 15.5 (19:10) 6.1 (07:20) 10.8 8.89 (05:30) 5.56 (05:20) 9 8.8 0.2 0 0
01-04-2020 14.7 (15:00) 5.8 (06:10) 10.3 13.89 (17:20) 7.5 (17:20) 1 0 0 1 0
31-03-2020 16.8 (15:00) 7.5 (00:00) 12.1 15.28 (17:10) 9.72 (17:10) 15.6 2.2 8.2 4.4 0.8
30-03-2020 14.7 (12:40) 8.6 (00:00) 11.7 7.78 (18:10) 5 (18:10) 9.2 0.2 0 5 4
29-03-2020 18.8 (14:50) 7.6 (00:00) 13.2 7.22 (00:40) 5.28 (00:40) 0 0 0 0 0
28-03-2020 18.8 (16:50) 2.5 (00:00) 10.6 9.17 (00:10) 5 (00:10) 0 0 0 0 0
27-03-2020 11.7 (18:00) 5.5 (00:00) 8.6 10.28 (23:50) 5.28 (23:50) 0 0 0 0 0
26-03-2020 19 (15:30) 8.5 (00:00) 13.8 12.78 (16:00) 7.5 (14:30) 0 0 0 0 0
25-03-2020 18.5 (16:20) 8.1 (00:00) 13.3 8.89 (15:20) 5 (02:20) 0 0 0 0 0
24-03-2020 16.4 (17:40) 9.5 (00:00) 12.9 19.44 (11:50) 8.61 (11:50) 0.2 0 0.2 0 0
23-03-2020 15.6 (15:10) 7.4 (00:00) 11.5 9.44 (20:30) 5.28 (21:20) 2.6 0.8 0 0 1.8
22-03-2020 14.5 (14:30) 5.5 (06:20) 10 9.17 (16:30) 4.44 (17:20) 1 0 0 0 1
21-03-2020 15.1 (15:20) 7.2 (00:00) 11.2 11.94 (16:40) 8.61 (16:40) 5.8 5 0 0.2 0.6
20-03-2020 18.7 (10:10) 11.4 (00:00) 15.1 11.11 (08:20) 7.78 (08:20) 0.2 0 0 0 0.2
19-03-2020 19.7 (15:20) 8.3 (00:00) 14 7.5 (01:50) 4.44 (01:40) 0 0 0 0 0
18-03-2020 21.1 (16:50) 10.7 (00:00) 15.9 16.11 (00:20) 7.78 (00:20) 0 0 0 0 0
17-03-2020 17.5 (17:20) 4.9 (00:00) 11.2 13.33 (23:59) 7.78 (23:50) 1 0.8 0.2 0 0
16-03-2020 10.4 (00:00) 2.2 (00:00) 6.3 13.61 (17:30) 9.17 (17:30) 1.2 0 0 0 1.2
15-03-2020 23.7 (16:00) 10.4 (00:00) 17.1 12.22 (14:20) 6.67 (23:59) 0 0 0 0 0
14-03-2020 23.4 (16:30) 11.7 (00:00) 17.5 5.83 (16:30) 3.33 (06:50) 0 0 0 0 0
13-03-2020 21.3 (16:20) 12.8 (23:40) 17 6.11 (14:10) 3.89 (17:40) 0 0 0 0 0
12-03-2020 27.9 (16:10) 14.3 (00:00) 21.1 10.56 (02:20) 7.5 (03:00) 0 0 0 0 0
11-03-2020 28.1 (15:10) 13.8 (00:00) 21 8.61 (23:50) 5.56 (23:20) 0 0 0 0 0
10-03-2020 24.7 (17:10) 10.4 (00:00) 17.6 6.67 (11:00) 4.17 (11:00) 0 0 0 0 0
09-03-2020 19 (17:30) 6.4 (00:00) 12.7 7.5 (13:20) 4.44 (17:40) 0 0 0 0 0
08-03-2020 18.9 (15:30) 7.8 (00:00) 13.3 6.94 (16:30) 4.44 (18:00) 0 0 0 0 0
07-03-2020 17.5 (16:00) 4.7 (00:00) 11.1 6.11 (15:30) 3.89 (00:10) 0 0 0 0 0
06-03-2020 14.8 (16:10) 5.7 (00:00) 10.3 15 (16:20) 9.72 (16:20) 0 0 0 0 0
05-03-2020 15.4 (16:20) 7.9 (00:00) 11.6 13.89 (11:50) 8.33 (14:20) 0 0 0 0 0

Gráficas

Temp. máximas Temp. mínimas Temp. medias Precipitaciones Rachas de viento máximas Velocidades máximas media en intervalos de 10 minutos

Datos horarios

Fecha y hora oficial Temperatura (ºC) Velocidad del viento (km/h) Dirección del viento Racha (km/h) Dirección de racha Precipitación (mm) Presión (hPa) Tendencia (hPa) Humedad (%)
2020-04-03 23:00:00 15.5 10 Este 17 Este 0 -- -- 43
2020-04-03 22:00:00 15.7 9 Sudeste 12 Sudeste 0 -- -- 42
2020-04-03 21:00:00 16.4 7 Sudeste 12 Sudeste 0 -- -- 41
2020-04-03 20:00:00 18 6 Sudeste 17 Sudeste 0 -- -- 37
2020-04-03 19:00:00 18.2 6 Norte 17 Este 0 -- -- 36
2020-04-03 18:00:00 18.5 9 Este 18 Este 0 -- -- 34
2020-04-03 17:00:00 18.2 5 Sudeste 17 Sur 0 -- -- 36
2020-04-03 16:00:00 17.6 10 Nordeste 22 Este 0 -- -- 38
2020-04-03 15:00:00 19.5 6 Sur 19 Sur 0 -- -- 35
2020-04-03 14:00:00 18.3 11 Sur 19 Sudeste 0 -- -- 42
2020-04-03 13:00:00 17.2 12 Sur 21 Sudeste 0 -- -- 54
2020-04-03 12:00:00 15.7 11 Sudeste 23 Sudeste 0 -- -- 62
2020-04-03 11:00:00 14.5 11 Sudeste 15 Sudeste 0 -- -- 69
2020-04-03 10:00:00 12 6 Sur 13 Sudeste 0 -- -- 78
2020-04-03 09:00:00 9.1 3 Sudeste 10 Sudeste 0 -- -- 82
2020-04-03 08:00:00 9.2 3 Sur 9 Sudeste 0 -- -- 80
2020-04-03 07:00:00 9.2 0 Calma 4 Oeste 0 -- -- 81
2020-04-03 06:00:00 9.3 3 Sudeste 4 Este 0 -- -- 81
2020-04-03 05:00:00 9.5 3 Sudeste 7 Sudeste 0 -- -- 80
2020-04-03 04:00:00 9.9 6 Sudeste 9 Sur 0 -- -- 78
2020-04-03 03:00:00 10.1 6 Sudeste 9 Sudeste 0 -- -- 75
2020-04-03 02:00:00 10.2 2 Sur 7 Sudeste 0 -- -- 75
2020-04-03 01:00:00 10.1 5 Sur 8 Sudeste 0 -- -- 76
2020-04-03 00:00:00 10.6 2 Sudeste 6 Sudeste 0 -- -- 74
2020-04-02 23:00:00 11 2 Sudoeste 8 Oeste 0 -- -- 74
2020-04-02 22:00:00 11.7 2 Oeste 9 Noroeste 0 -- -- 72
2020-04-02 21:00:00 13 5 Noroeste 21 Noroeste 0 -- -- 67
2020-04-02 20:00:00 15 10 Noroeste 21 Noroeste 0 -- -- 57
2020-04-02 19:00:00 15.4 11 Noroeste 22 Oeste 0 -- -- 56
2020-04-02 18:00:00 15.1 8 Norte 22 Noroeste 0 -- -- 56
2020-04-02 17:00:00 14 9 Norte 19 Norte 0 -- -- 60
2020-04-02 16:00:00 13.1 8 Nordeste 17 Norte 0 -- -- 63
2020-04-02 15:00:00 11.9 5 Norte 15 Nordeste 0 -- -- 65
2020-04-02 14:00:00 10.2 9 Nordeste 15 Nordeste 0 -- -- 71
2020-04-02 13:00:00 9.6 6 Este 16 Nordeste 0 -- -- 78
2020-04-02 12:00:00 8.4 5 Nordeste 12 Nordeste 0 -- -- 82
2020-04-02 11:00:00 7.7 2 Nordeste 8 Nordeste 0 -- -- 88
2020-04-02 10:00:00 7.3 4 Sudoeste 19 Este 0 -- -- 91
2020-04-02 09:00:00 6.7 12 Este 24 Este 0 -- -- 84
2020-04-02 08:00:00 6.1 2 Sudeste 12 Sudeste 0 -- -- 94
2020-04-02 07:00:00 6.2 12 Este 21 Este 0.2 -- -- 92
2020-04-02 06:00:00 6.2 2 Oeste 32 Este 0.2 -- -- 92
2020-04-02 05:00:00 6.3 8 Este 21 Nordeste 2 -- -- 90
2020-04-02 04:00:00 6.6 5 Sur 24 Sudeste 5 -- -- 93
2020-04-02 03:00:00 7.7 12 Sudeste 30 Sudeste 1.4 -- -- 94
2020-04-02 02:00:00 8.1 19 Sudeste 31 Sudeste 0.2 -- -- 88
2020-04-02 01:00:00 8.4 16 Sudeste 28 Sudeste 0 -- -- 79
2020-04-02 00:00:00 8.4 16 Sudeste 25 Sur 0 -- -- 75
2020-04-01 23:00:00 8.5 14 Sudeste 22 Sudeste 0 -- -- 71
2020-04-01 22:00:00 8.9 12 Sudeste 22 Sudeste 0 -- -- 72
2020-04-01 21:00:00 9.7 8 Sudeste 19 Sur 0 -- -- 69
2020-04-01 20:00:00 11.7 13 Sudoeste 26 Sudoeste 0 -- -- 62
2020-04-01 19:00:00 12.5 4 Sudoeste 14 Sudoeste 0 -- -- 63
2020-04-01 18:00:00 10.1 5 Oeste 50 Sudoeste 1 -- -- 80
2020-04-01 17:00:00 12.7 4 Oeste 14 Oeste 0 -- -- 45
2020-04-01 16:00:00 13.9 8 Oeste 23 Sudoeste 0 -- -- 43
2020-04-01 15:00:00 14.7 12 Sudoeste 37 Sudoeste 0 -- -- 42
2020-04-01 14:00:00 14.1 13 Sudoeste 24 Sudoeste 0 -- -- 47
2020-04-01 13:00:00 12.4 8 Sudoeste 25 Sudoeste 0 -- -- 57
2020-04-01 12:00:00 10.7 13 Sudoeste 21 Sur 0 -- -- 66
2020-04-01 11:00:00 8.7 10 Oeste 15 Oeste 0 -- -- 87
2020-04-01 10:00:00 7.2 8 Oeste 21 Sudeste 0 -- -- 91
2020-04-01 09:00:00 6.4 12 Sudeste 18 Sudeste 0 -- -- 90
2020-04-01 08:00:00 6.6 6 Sudeste 10 Sudeste 0 -- -- 90
2020-04-01 07:00:00 6.2 0 Calma 6 Sudeste 0 -- -- 87
2020-04-01 06:00:00 6 2 Sur 5 Oeste 0 -- -- 91
2020-04-01 05:00:00 6.9 0 Calma 11 Este 0 -- -- 87
2020-04-01 04:00:00 7.1 5 Nordeste 8 Nordeste 0 -- -- 90
2020-04-01 03:00:00 7.2 3 Oeste 5 Oeste 0 -- -- 92
2020-04-01 02:00:00 7.6 0 Calma 9 Oeste 0 -- -- 94
2020-04-01 01:00:00 7.6 5 Oeste 18 Oeste 0 -- -- 94
2020-04-01 00:00:00 9.2 11 Oeste 18 Oeste 0 -- -- 92
2020-03-31 23:00:00 10.3 8 Sur 11 Sur 0 -- -- 92
2020-03-31 22:00:00 10.1 3 Sur 8 Sur 0 -- -- 91
2020-03-31 21:00:00 10.3 3 Sur 14 Oeste 0.6 -- -- 92
2020-03-31 20:00:00 11 8 Oeste 22 Oeste 0.2 -- -- 88
2020-03-31 19:00:00 12.1 15 Sudoeste 29 Sur 0 -- -- 83
2020-03-31 18:00:00 12 24 Sur 55 Sudoeste 3 -- -- 79
2020-03-31 17:00:00 10.6 26 Sudoeste 42 Sur 1.4 -- -- 84
2020-03-31 16:00:00 15 29 Sur 44 Sur 0 -- -- 68
2020-03-31 15:00:00 16.8 31 Sur 46 Sur 0 -- -- 66
2020-03-31 14:00:00 16 23 Sur 34 Sur 0 -- -- 71
2020-03-31 13:00:00 13 23 Sur 36 Sudoeste 0 -- -- 80
2020-03-31 12:00:00 10.8 10 Sur 19 Oeste 0 -- -- 92
2020-03-31 11:00:00 9 14 Oeste 34 Sur 0 -- -- 96
2020-03-31 10:00:00 9 21 Sur 31 Sur 2.2 -- -- 97
2020-03-31 09:00:00 8 6 Sudeste 20 Sudeste 1.8 -- -- 95
2020-03-31 08:00:00 7.8 16 Sudeste 30 Sudeste 1.4 -- -- 94
2020-03-31 07:00:00 8 13 Sudeste 29 Sudeste 2.8 -- -- 96
2020-03-31 06:00:00 7.8 4 Sur 15 Sudeste 1.4 -- -- 96
2020-03-31 05:00:00 7.9 10 Sudeste 19 Sudeste 0.6 -- -- 94
2020-03-31 04:00:00 7.7 0 Calma 15 Este 0 -- -- 93
2020-03-31 03:00:00 7.7 7 Este 22 Este 0 -- -- 92
2020-03-31 02:00:00 8.6 9 Este 22 Este 0.2 -- -- 89
2020-03-31 01:00:00 8.9 3 Sudeste 12 Este 0 -- -- 89
2020-03-31 00:00:00 8.9 4 Este 18 Este 0 -- -- 87
2020-03-30 23:00:00 8.7 10 Sudeste 20 Sudeste 0 -- -- 89
2020-03-30 22:00:00 8.6 9 Sudeste 18 Sudeste 0 -- -- 91
2020-03-30 21:00:00 9.3 8 Sudeste 13 Sudeste 0.2 -- -- 91
2020-03-30 20:00:00 9.5 3 Noroeste 17 Este 3.6 -- -- 90
2020-03-30 19:00:00 9.6 11 Este 28 Este 0.2 -- -- 91
2020-03-30 18:00:00 9.6 14 Este 26 Este 2 -- -- 91
2020-03-30 17:00:00 10.4 10 Nordeste 19 Norte 1.6 -- -- 87
2020-03-30 16:00:00 10.7 10 Nordeste 25 Este 0 -- -- 81
2020-03-30 15:00:00 11.6 12 Nordeste 21 Nordeste 0 -- -- 83
2020-03-30 14:00:00 12.6 10 Norte 18 Norte 1.4 -- -- 79
2020-03-30 13:00:00 14.6 4 Oeste 12 Oeste 0 -- -- 56
2020-03-30 12:00:00 13.9 4 Oeste 8 Oeste 0 -- -- 55
2020-03-30 11:00:00 12.5 3 Sudoeste 6 Sudoeste 0 -- -- 66
2020-03-30 10:00:00 12 2 Sur 6 Sudoeste 0 -- -- 68
2020-03-30 09:00:00 10.7 3 Sur 8 Sur 0 -- -- 72
2020-03-30 08:00:00 10 5 Sur 9 Sur 0 -- -- 73
2020-03-30 07:00:00 10.3 3 Sur 6 Sudoeste 0 -- -- 72
2020-03-30 06:00:00 11.3 2 Sudoeste 4 Sudoeste 0 -- -- 67
2020-03-30 05:00:00 11.8 0 Calma 10 Sudeste 0 -- -- 66
2020-03-30 04:00:00 11.7 7 Sudeste 10 Sur 0 -- -- 71
2020-03-30 03:00:00 11.8 4 Sur 8 Sudoeste 0.2 -- -- 73
2020-03-30 02:00:00 12.6 3 Sur 8 Sur 0 -- -- 60
2020-03-30 01:00:00 12.9 5 Sur 12 Sur 0 -- -- 60
2020-03-30 00:00:00 13.5 5 Sudoeste 9 Sudoeste 0 -- -- 52
2020-03-29 23:00:00 14.1 3 Sur 7 Sudoeste 0 -- -- 42
2020-03-29 22:00:00 15.3 4 Norte 6 Norte 0 -- -- 33
2020-03-29 21:00:00 15.4 3 Nordeste 10 Noroeste 0 -- -- 34
2020-03-29 20:00:00 16.8 6 Noroeste 17 Noroeste 0 -- -- 30
2020-03-29 19:00:00 17.4 10 Noroeste 21 Noroeste 0 -- -- 30
2020-03-29 18:00:00 18 9 Noroeste 21 Oeste 0 -- -- 29
2020-03-29 17:00:00 18 5 Noroeste 21 Noroeste 0 -- -- 28
2020-03-29 16:00:00 18 9 Noroeste 18 Oeste 0 -- -- 27
2020-03-29 15:00:00 18.8 10 Norte 19 Norte 0 -- -- 27
2020-03-29 14:00:00 17.1 5 Norte 18 Oeste 0 -- -- 29
2020-03-29 13:00:00 16.6 5 Norte 11 Nordeste 0 -- -- 30
2020-03-29 12:00:00 15.5 2 Oeste 10 Sur 0 -- -- 36
2020-03-29 11:00:00 14.3 6 Sur 14 Sudeste 0 -- -- 41
2020-03-29 10:00:00 11.6 9 Sudeste 18 Sudeste 0 -- -- 44
2020-03-29 09:00:00 7.8 9 Sudeste 14 Sudeste 0 -- -- 54
2020-03-29 08:00:00 8 4 Sur 10 Sur 0 -- -- 51
2020-03-29 07:00:00 10.1 4 Este 12 Sudeste 0 -- -- 42
2020-03-29 06:00:00 8.4 7 Sudeste 17 Oeste 0 -- -- 48
2020-03-29 05:00:00 9.3 7 Sudeste 9 Sudeste 0 -- -- 43
2020-03-29 03:00:00 10.5 3 Sudeste 18 Sudeste 0 -- -- 39
2020-03-29 01:00:00 12.3 17 Sudeste 26 Sudeste 0 -- -- 33
2020-03-29 00:00:00 12.5 12 Sudeste 17 Sudeste 0 -- -- 35
2020-03-28 23:00:00 13.8 9 Este 15 Este 0 -- -- 37
2020-03-28 22:00:00 14.2 10 Este 16 Este 0 -- -- 34
2020-03-28 21:00:00 14.2 9 Este 18 Este 0 -- -- 34
2020-03-28 20:00:00 14.6 9 Este 15 Este 0 -- -- 34
2020-03-28 19:00:00 16.3 4 Este 17 Este 0 -- -- 29
2020-03-28 18:00:00 17.8 5 Sudoeste 18 Sur 0 -- -- 25
2020-03-28 17:00:00 18.6 6 Sur 21 Sur 0 -- -- 27
2020-03-28 16:00:00 18.1 4 Sur 21 Sur 0 -- -- 33
2020-03-28 15:00:00 17.5 6 Sudoeste 17 Sur 0 -- -- 35
2020-03-28 14:00:00 14.9 8 Sudeste 19 Este 0 -- -- 42
2020-03-28 13:00:00 13.2 9 Nordeste 18 Este 0 -- -- 59
2020-03-28 12:00:00 12.1 10 Nordeste 19 Nordeste 0 -- -- 60
2020-03-28 11:00:00 11.3 8 Este 19 Este 0 -- -- 62
2020-03-28 10:00:00 8.1 9 Sudeste 17 Sudeste 0 -- -- 76
2020-03-28 09:00:00 5.3 10 Sudeste 16 Sudeste 0 -- -- 85
2020-03-28 08:00:00 2.7 6 Sudeste 16 Sudeste 0 -- -- 92
2020-03-28 07:00:00 2.6 10 Sudeste 14 Sudeste 0 -- -- 91
2020-03-28 06:00:00 3.6 3 Sudeste 22 Este 0 -- -- 86
2020-03-28 05:00:00 4.1 6 Sudeste 22 Este 0 -- -- 85
2020-03-28 04:00:00 4.7 6 Sudeste 25 Nordeste 0 -- -- 81
2020-03-28 03:00:00 4.6 7 Este 21 Este 0 -- -- 82
2020-03-28 02:00:00 4.9 3 Sudeste 21 Este 0 -- -- 80
2020-03-28 01:00:00 5.4 8 Sudeste 33 Este 0 -- -- 78
2020-03-28 00:00:00 6.2 18 Este 37 Este 0 -- -- 74
2020-03-27 23:00:00 7.2 12 Este 30 Este 0 -- -- 70
2020-03-27 22:00:00 7.4 12 Sudeste 30 Este 0 -- -- 69
2020-03-27 21:00:00 8.3 13 Este 28 Sudeste 0 -- -- 66
2020-03-27 20:00:00 9.3 13 Este 30 Este 0 -- -- 63
2020-03-27 19:00:00 10.9 11 Sudeste 30 Este 0 -- -- 62
2020-03-27 18:00:00 11.7 10 Este 32 Este 0 -- -- 60
2020-03-27 17:00:00 11.3 8 Nordeste 26 Nordeste 0 -- -- 63
2020-03-27 16:00:00 11.4 13 Este 36 Nordeste 0 -- -- 64
2020-03-27 15:00:00 10 7 Nordeste 19 Nordeste 0 -- -- 77
2020-03-27 14:00:00 9.3 8 Nordeste 15 Norte 0 -- -- 80
2020-03-27 13:00:00 8.3 4 Norte 12 Oeste 0 -- -- 84
2020-03-27 12:00:00 8 2 Noroeste 10 Oeste 0 -- -- 85
2020-03-27 11:00:00 7 4 Oeste 12 Sudoeste 0 -- -- 90
2020-03-27 10:00:00 6.9 6 Sur 12 Sur 0 -- -- 91
2020-03-27 09:00:00 5.9 4 Sur 9 Sudoeste 0 -- -- 95
2020-03-27 08:00:00 5.8 5 Sudoeste 12 Sudoeste 0 -- -- 96
2020-03-27 07:00:00 5.7 7 Sudoeste 12 Sur 0 -- -- 94
2020-03-27 06:00:00 5.6 6 Sur 9 Sur 0 -- -- 93
2020-03-27 05:00:00 6.2 6 Sur 10 Sur 0 -- -- 92
2020-03-27 04:00:00 6.8 5 Sur 12 Sudoeste 0 -- -- 90
2020-03-27 03:00:00 7.3 7 Sudoeste 11 Sudoeste 0 -- -- 85
2020-03-27 02:00:00 8.3 5 Sur 15 Sudoeste 0 -- -- 79
2020-03-27 01:00:00 9.2 9 Sudoeste 21 Sudoeste 0 -- -- 71
2020-03-27 00:00:00 9.9 11 Sudoeste 17 Sudoeste 0 -- -- 66
2020-03-26 23:00:00 11.2 10 Oeste 16 Sudoeste 0 -- -- 58
2020-03-26 22:00:00 12.2 6 Noroeste 18 Noroeste 0 -- -- 56
2020-03-26 21:00:00 13.3 10 Noroeste 17 Noroeste 0 -- -- 48
2020-03-26 20:00:00 14.8 8 Noroeste 30 Oeste 0 -- -- 46
2020-03-26 19:00:00 17 18 Noroeste 37 Noroeste 0 -- -- 42
2020-03-26 18:00:00 18.2 23 Oeste 39 Oeste 0 -- -- 35
2020-03-26 17:00:00 18.6 22 Noroeste 45 Noroeste 0 -- -- 31
2020-03-26 16:00:00 18.6 24 Noroeste 46 Noroeste 0 -- -- 27
2020-03-26 15:00:00 18.3 23 Noroeste 43 Oeste 0 -- -- 29
2020-03-26 14:00:00 18 21 Noroeste 37 Oeste 0 -- -- 21
2020-03-26 13:00:00 16.9 18 Noroeste 31 Noroeste 0 -- -- 37
2020-03-26 12:00:00 16 15 Oeste 27 Oeste 0 -- -- 51
2020-03-26 11:00:00 14.4 10 Noroeste 19 Noroeste 0 -- -- 54
2020-03-26 10:00:00 12.1 12 Oeste 17 Oeste 0 -- -- 69
2020-03-26 09:00:00 10 5 Sudoeste 10 Sudoeste 0 -- -- 88
2020-03-26 08:00:00 8.5 3 Sur 8 Sur 0 -- -- 91
2020-03-26 07:00:00 8.7 4 Sudoeste 10 Sudoeste 0 -- -- 92
2020-03-26 06:00:00 9.4 3 Sudoeste 11 Sudoeste 0 -- -- 92
2020-03-26 05:00:00 10.1 4 Sudoeste 11 Sudoeste 0 -- -- 90
2020-03-26 04:00:00 11.1 4 Sur 13 Sudoeste 0 -- -- 88
2020-03-26 03:00:00 11.9 4 Sur 10 Sur 0 -- -- 81
2020-03-26 02:00:00 12.1 6 Sudoeste 12 Oeste 0 -- -- 78
2020-03-26 01:00:00 12.2 6 Sur 20 Este 0 -- -- 69
2020-03-26 00:00:00 12.1 16 Este 25 Norte 0 -- -- 67
2020-03-25 23:00:00 14.2 9 Oeste 19 Este 0 -- -- 53
2020-03-25 22:00:00 14.4 6 Noroeste 15 Noroeste 0 -- -- 51
2020-03-25 21:00:00 14.7 4 Noroeste 12 Norte 0 -- -- 50
2020-03-25 20:00:00 15.3 6 Noroeste 13 Noroeste 0 -- -- 47
2020-03-25 19:00:00 17.5 8 Noroeste 25 Oeste 0 -- -- 40
2020-03-25 18:00:00 18.2 10 Noroeste 28 Noroeste 0 -- -- 34
2020-03-25 17:00:00 18.1 12 Noroeste 24 Noroeste 0 -- -- 35
2020-03-25 16:00:00 17.9 11 Norte 32 Noroeste 0 -- -- 37
2020-03-25 15:00:00 17.7 9 Noroeste 20 Norte 0 -- -- 38
2020-03-25 14:00:00 17.1 7 Norte 18 Norte 0 -- -- 40
2020-03-25 13:00:00 15.9 5 Nordeste 13 Nordeste 0 -- -- 40
2020-03-25 12:00:00 16.3 5 Sudoeste 19 Sur 0 -- -- 40
2020-03-25 11:00:00 14.8 7 Sur 18 Sur 0 -- -- 48
2020-03-25 10:00:00 12.9 7 Sur 13 Sur 0 -- -- 58
2020-03-25 09:00:00 10.5 5 Sur 8 Sur 0 -- -- 67
2020-03-25 08:00:00 8.4 7 Sudeste 19 Sudeste 0 -- -- 70
2020-03-25 07:00:00 8.3 5 Nordeste 8 Nordeste 0 -- -- 75
2020-03-25 06:00:00 8.6 5 Sudeste 23 Este 0 -- -- 73
2020-03-25 05:00:00 8.6 5 Este 13 Este 0 -- -- 73
2020-03-25 04:00:00 8.4 5 Nordeste 19 Sudeste 0 -- -- 76
2020-03-25 03:00:00 9.5 15 Sudeste 31 Este 0 -- -- 69
2020-03-25 02:00:00 9.3 7 Este 14 Este 0 -- -- 71
2020-03-25 01:00:00 9.4 2 Sudeste 16 Sudeste 0 -- -- 71
2020-03-25 00:00:00 10.5 7 Sudeste 33 Sudeste 0 -- -- 64
2020-03-24 23:00:00 10.6 17 Sudeste 37 Sudeste 0 -- -- 64
2020-03-24 22:00:00 10.9 17 Este 43 Este 0 -- -- 64
2020-03-24 21:00:00 11.6 24 Este 46 Este 0 -- -- 61
2020-03-24 20:00:00 12.5 28 Este 53 Este 0 -- -- 59
2020-03-24 19:00:00 14.3 25 Este 51 Sudeste 0 -- -- 52
2020-03-24 18:00:00 16 19 Este 42 Este 0 -- -- 48
2020-03-24 17:00:00 16.2 22 Este 43 Este 0 -- -- 49
2020-03-24 16:00:00 15.3 22 Este 42 Este 0 -- -- 51
2020-03-24 15:00:00 16.1 21 Este 51 Este 0 -- -- 49
2020-03-24 14:00:00 15.8 21 Sudeste 51 Sudeste 0 -- -- 49
2020-03-24 13:00:00 16.1 24 Sudeste 53 Sudeste 0 -- -- 45
2020-03-24 12:00:00 14.8 24 Este 70 Este 0 -- -- 50
2020-03-24 11:00:00 13.7 28 Este 58 Este 0 -- -- 51
2020-03-24 10:00:00 12.2 26 Este 49 Este 0.2 -- -- 61
2020-03-24 09:00:00 10.7 7 Oeste 39 Sudeste 0 -- -- 77
2020-03-24 08:00:00 9.8 14 Este 37 Este 0 -- -- 79
2020-03-24 07:00:00 9.7 18 Este 42 Este 0 -- -- 79
2020-03-24 06:00:00 9.7 19 Este 33 Este 0 -- -- 79
2020-03-24 05:00:00 9.7 18 Este 36 Este 0 -- -- 82
2020-03-24 04:00:00 10.2 18 Este 32 Este 0 -- -- 85
2020-03-24 03:00:00 10.1 19 Este 31 Este 0 -- -- 86
2020-03-24 02:00:00 10.2 16 Este 29 Este 0 -- -- 83
2020-03-24 01:00:00 10.3 17 Este 30 Este 0 -- -- 81
2020-03-24 00:00:00 10.1 9 Este 31 Sudeste 0 -- -- 83
2020-03-23 23:00:00 10.3 8 Sudeste 20 Sudeste 0 -- -- 81
2020-03-23 22:00:00 10.7 14 Sudeste 30 Sudeste 0.2 -- -- 72
2020-03-23 21:00:00 11.2 15 Sudeste 34 Este 1.6 -- -- 65
2020-03-23 20:00:00 13 6 Norte 10 Noroeste 0 -- -- 63
2020-03-23 19:00:00 14.5 5 Norte 15 Noroeste 0 -- -- 50
2020-03-23 18:00:00 15.1 8 Norte 17 Norte 0 -- -- 50
2020-03-23 17:00:00 14.1 3 Norte 23 Sudeste 0 -- -- 49
2020-03-23 16:00:00 14.4 12 Sudeste 28 Sudeste 0 -- -- 46
2020-03-23 15:00:00 15.4 11 Sudeste 25 Sudeste 0 -- -- 49
2020-03-23 14:00:00 14.1 9 Nordeste 31 Nordeste 0 -- -- 54
2020-03-23 13:00:00 12.9 13 Este 27 Este 0 -- -- 62
2020-03-23 12:00:00 12.9 9 Este 24 Este 0 -- -- 63
2020-03-23 11:00:00 11.8 13 Este 24 Este 0 -- -- 69
2020-03-23 10:00:00 10.8 8 Sudeste 17 Este 0 -- -- 78
2020-03-23 09:00:00 9.1 5 Este 11 Sudeste 0 -- -- 88
2020-03-23 08:00:00 7.7 3 Sur 10 Este 0 -- -- 90
2020-03-23 07:00:00 7.9 2 Este 12 Sudeste 0 -- -- 91
2020-03-23 06:00:00 8.1 2 Sur 10 Este 0 -- -- 94
2020-03-23 05:00:00 8.3 5 Este 12 Sudeste 0 -- -- 92
2020-03-23 04:00:00 8.4 6 Sudeste 12 Sudeste 0 -- -- 91
2020-03-23 03:00:00 9 6 Este 18 Este 0 -- -- 88
2020-03-23 02:00:00 9 5 Este 12 Nordeste 0.8 -- -- 85
2020-03-23 01:00:00 9.4 0 Calma 5 Sudeste 0 -- -- 88
2020-03-23 00:00:00 9.2 0 Calma 8 Sudeste 0 -- -- 91
2020-03-22 23:00:00 9.3 3 Este 9 Este 0 -- -- 87
2020-03-22 22:00:00 9.4 6 Nordeste 19 Este 0.8 -- -- 83
2020-03-22 21:00:00 11.3 5 Este 9 Este 0.2 -- -- 60
2020-03-22 20:00:00 11.8 5 Nordeste 13 Nordeste 0 -- -- 50
2020-03-22 19:00:00 12.5 4 Nordeste 16 Nordeste 0 -- -- 48
2020-03-22 18:00:00 13.3 10 Este 27 Este 0 -- -- 46
2020-03-22 17:00:00 12.6 14 Este 33 Nordeste 0 -- -- 51
2020-03-22 16:00:00 13.6 10 Nordeste 19 Nordeste 0 -- -- 41
2020-03-22 15:00:00 13.4 9 Nordeste 22 Norte 0 -- -- 49
2020-03-22 14:00:00 13.3 11 Nordeste 22 Norte 0 -- -- 50
2020-03-22 13:00:00 12.4 7 Nordeste 18 Nordeste 0 -- -- 52
2020-03-22 12:00:00 10.9 6 Nordeste 18 Este 0 -- -- 63
2020-03-22 11:00:00 10.2 7 Nordeste 18 Nordeste 0 -- -- 74
2020-03-22 10:00:00 9.4 6 Nordeste 14 Este 0 -- -- 78
2020-03-22 09:00:00 7.6 7 Sur 12 Sur 0 -- -- 91
2020-03-22 08:00:00 5.7 4 Sudeste 10 Sudeste 0 -- -- 93
2020-03-22 07:00:00 5.5 4 Sudeste 12 Sudeste 0 -- -- 93
2020-03-22 06:00:00 5.8 5 Sur 17 Sudeste 0 -- -- 91
2020-03-22 05:00:00 6.4 13 Sudeste 20 Sudeste 0 -- -- 90
2020-03-22 04:00:00 6.3 12 Sudeste 21 Sudeste 0 -- -- 90
2020-03-22 03:00:00 6.8 12 Sudeste 21 Sudeste 0 -- -- 89
2020-03-22 02:00:00 7.3 10 Sudeste 17 Sudeste 0 -- -- 91
2020-03-22 01:00:00 7 12 Sudeste 23 Sudeste 0 -- -- 90
2020-03-22 00:00:00 7.2 16 Sudeste 24 Sudeste 0 -- -- 87
2020-03-21 23:00:00 7.5 14 Sudeste 24 Sudeste 0 -- -- 84
2020-03-21 22:00:00 7.8 10 Sudeste 21 Sudeste 0 -- -- 84
2020-03-21 21:00:00 8.3 14 Sudeste 30 Este 0 -- -- 80
2020-03-21 20:00:00 8.7 15 Sudeste 30 Sudeste 0.2 -- -- 80
2020-03-21 19:00:00 9 12 Sudeste 27 Sudeste 0.4 -- -- 86
2020-03-21 18:00:00 9.5 17 Sur 36 Sur 0.2 -- -- 83
2020-03-21 17:00:00 10.6 22 Sur 43 Sur 0 -- -- 71
2020-03-21 16:00:00 13 16 Sur 27 Sur 0 -- -- 60
2020-03-21 15:00:00 14.5 12 Sur 30 Sur 0 -- -- 49
2020-03-21 14:00:00 13.7 13 Sur 26 Sur 0 -- -- 56
2020-03-21 13:00:00 13.1 15 Sudoeste 28 Sur 0 -- -- 63
2020-03-21 12:00:00 12.6 14 Sudoeste 22 Sudoeste 0 -- -- 64
2020-03-21 11:00:00 11.2 7 Sudoeste 20 Sur 0 -- -- 72
2020-03-21 10:00:00 9.3 11 Sudoeste 22 Sudoeste 0 -- -- 81
2020-03-21 09:00:00 8.1 13 Sur 20 Sur 0 -- -- 89
2020-03-21 08:00:00 7.8 8 Sur 19 Sur 0 -- -- 91
2020-03-21 07:00:00 7.5 12 Sur 19 Sur 0 -- -- 88
2020-03-21 06:00:00 7.4 11 Sudeste 33 Sudoeste 1.4 -- -- 86
2020-03-21 05:00:00 8.8 20 Sudoeste 33 Sudoeste 2.2 -- -- 94
2020-03-21 04:00:00 10.3 19 Sudoeste 39 Sur 1.4 -- -- 88
2020-03-21 03:00:00 12.2 15 Sur 33 Sur 0 -- -- 76
2020-03-21 02:00:00 12.1 14 Sur 28 Sur 0 -- -- 75
2020-03-21 01:00:00 12.2 21 Sur 34 Sur 0 -- -- 72
2020-03-21 00:00:00 12.5 19 Sur 34 Sudeste 0 -- -- 68
2020-03-20 23:00:00 12.7 19 Sudeste 31 Sudeste 0 -- -- 69
2020-03-20 22:00:00 13.6 14 Sudeste 21 Sudeste 0 -- -- 65
2020-03-20 21:00:00 14.3 10 Sudeste 15 Sudeste 0 -- -- 63
2020-03-20 20:00:00 14.5 2 Sudeste 12 Sudeste 0 -- -- 70
2020-03-20 19:00:00 15.4 9 Sudeste 21 Sur 0.2 -- -- 67
2020-03-20 18:00:00 17 13 Sur 26 Sudeste 0 -- -- 49
2020-03-20 17:00:00 17 16 Sur 28 Sudeste 0 -- -- 51
2020-03-20 16:00:00 17.4 13 Sudeste 26 Sudeste 0 -- -- 49
2020-03-20 15:00:00 17.7 15 Sudeste 28 Sudeste 0 -- -- 46
2020-03-20 14:00:00 17.6 15 Sudeste 28 Sudeste 0 -- -- 50
2020-03-20 13:00:00 17.8 18 Sur 32 Sudeste 0 -- -- 48
2020-03-20 12:00:00 16.7 22 Sur 37 Sur 0 -- -- 50
2020-03-20 11:00:00 16 21 Sur 30 Sur 0 -- -- 53
2020-03-20 10:00:00 15.2 17 Sudeste 31 Sudeste 0 -- -- 63
2020-03-20 09:00:00 12.1 20 Sudeste 40 Sudeste 0 -- -- 77
2020-03-20 08:00:00 11.4 15 Sudeste 31 Sudeste 0 -- -- 79
2020-03-20 07:00:00 11.8 22 Sudeste 37 Sudeste 0 -- -- 75
2020-03-20 06:00:00 11.9 21 Sudeste 35 Sudeste 0 -- -- 75
2020-03-20 05:00:00 12.5 19 Sudeste 30 Sudeste 0 -- -- 70
2020-03-20 04:00:00 13.3 14 Sudeste 22 Sudeste 0 -- -- 66
2020-03-20 03:00:00 13.5 12 Sur 18 Sudeste 0 -- -- 66
2020-03-20 02:00:00 13.8 11 Sudeste 25 Sudeste 0 -- -- 62
2020-03-20 01:00:00 14.6 18 Sudeste 24 Sudeste 0 -- -- 56
2020-03-20 00:00:00 15 9 Sudeste 13 Sudeste 0 -- -- 54
2020-03-19 23:00:00 15.3 6 Sudeste 17 Este 0 -- -- 53
2020-03-19 22:00:00 16.1 11 Este 15 Este 0 -- -- 48
2020-03-19 21:00:00 16.2 8 Este 17 Sudeste 0 -- -- 49
2020-03-19 20:00:00 16.6 10 Sudeste 16 Este 0 -- -- 48
2020-03-19 19:00:00 17.7 5 Este 18 Sudeste 0 -- -- 45
2020-03-19 18:00:00 19 10 Sudeste 23 Sudeste 0 -- -- 40
2020-03-19 17:00:00 19.6 14 Sur 22 Sur 0 -- -- 39
2020-03-19 16:00:00 19.5 10 Este 21 Este 0 -- -- 37
2020-03-19 15:00:00 19.2 9 Este 21 Este 0 -- -- 37
2020-03-19 14:00:00 19 10 Nordeste 25 Este 0 -- -- 36
2020-03-19 13:00:00 17.5 12 Este 24 Este 0 -- -- 42
2020-03-19 12:00:00 16.7 9 Este 23 Sudeste 0 -- -- 44
2020-03-19 11:00:00 15.3 9 Sudeste 19 Sudeste 0 -- -- 50
2020-03-19 10:00:00 12.4 6 Sur 13 Sudeste 0 -- -- 60
2020-03-19 09:00:00 9.2 0 Calma 16 Sudeste 0 -- -- 69
2020-03-19 08:00:00 8.5 4 Sudeste 19 Sudeste 0 -- -- 69
2020-03-19 07:00:00 8.7 9 Sudeste 15 Sudeste 0 -- -- 68
2020-03-19 06:00:00 9.2 3 Sudeste 18 Sudeste 0 -- -- 67
2020-03-19 05:00:00 9.5 10 Sudeste 17 Sudeste 0 -- -- 67
2020-03-19 04:00:00 10.1 4 Sudeste 16 Sudeste 0 -- -- 65
2020-03-19 03:00:00 11.7 6 Sudeste 21 Sudeste 0 -- -- 58
2020-03-19 02:00:00 12.7 15 Sudeste 27 Sudeste 0 -- -- 55
2020-03-19 01:00:00 13.2 14 Este 25 Este 0 -- -- 54
2020-03-19 00:00:00 13.2 9 Sudeste 14 Este 0 -- -- 56
2020-03-18 23:00:00 13.8 5 Sur 30 Sudeste 0 -- -- 54
2020-03-18 22:00:00 14.2 17 Sudeste 40 Este 0 -- -- 52
2020-03-18 21:00:00 14.4 20 Este 43 Este 0 -- -- 53
2020-03-18 20:00:00 15.4 19 Este 41 Este 0 -- -- 51
2020-03-18 19:00:00 16.8 27 Este 46 Este 0 -- -- 47
2020-03-18 18:00:00 18.6 23 Este 43 Este 0 -- -- 42
2020-03-18 17:00:00 21 14 Este 38 Este 0 -- -- 33
2020-03-18 16:00:00 20.3 16 Este 32 Este 0 -- -- 37
2020-03-18 15:00:00 20 13 Este 30 Este 0 -- -- 37
2020-03-18 14:00:00 19.2 14 Este 32 Este 0 -- -- 38
2020-03-18 13:00:00 18 13 Este 32 Este 0 -- -- 41
2020-03-18 12:00:00 16.4 17 Este 41 Este 0 -- -- 46
2020-03-18 11:00:00 14.9 14 Este 41 Este 0 -- -- 52
2020-03-18 10:00:00 13 22 Este 39 Este 0 -- -- 59
2020-03-18 09:00:00 11.7 14 Este 39 Este 0 -- -- 64
2020-03-18 08:00:00 10.8 19 Este 45 Este 0 -- -- 69
2020-03-18 07:00:00 11.1 22 Este 42 Este 0 -- -- 68
2020-03-18 06:00:00 11.2 21 Este 40 Este 0 -- -- 68
2020-03-18 05:00:00 10.7 15 Nordeste 38 Este 0 -- -- 73
2020-03-18 04:00:00 11.8 24 Este 43 Este 0 -- -- 70
2020-03-18 03:00:00 12.6 19 Este 40 Nordeste 0 -- -- 68
2020-03-18 02:00:00 13 23 Este 50 Este 0 -- -- 70
2020-03-18 01:00:00 13 21 Este 58 Este 0 -- -- 71
2020-03-18 00:00:00 13.4 27 Este 48 Este 0 -- -- 70
2020-03-17 23:00:00 13.6 18 Este 40 Este 0 -- -- 66
2020-03-17 22:00:00 14 5 Este 23 Este 0 -- -- 52
2020-03-17 21:00:00 14.8 12 Este 26 Este 0 -- -- 45
2020-03-17 20:00:00 15.7 12 Sudeste 21 Este 0 -- -- 33
2020-03-17 19:00:00 16.4 10 Sudeste 23 Sudeste 0 -- -- 25
2020-03-17 18:00:00 16.8 11 Sudeste 31 Este 0 -- -- 27
2020-03-17 17:00:00 16.8 13 Este 30 Este 0 -- -- 29
2020-03-17 16:00:00 16.3 12 Este 36 Este 0 -- -- 30
2020-03-17 15:00:00 15.2 17 Este 39 Este 0 -- -- 31
2020-03-17 14:00:00 15.6 16 Sudeste 33 Sudeste 0 -- -- 36
2020-03-17 13:00:00 14.3 15 Sudeste 34 Sudeste 0 -- -- 41
2020-03-17 12:00:00 13 16 Sudeste 32 Sudeste 0 -- -- 49
2020-03-17 11:00:00 11.9 16 Sudeste 33 Sudeste 0 -- -- 52
2020-03-17 10:00:00 8.3 11 Este 25 Este 0 -- -- 76
2020-03-17 09:00:00 6.1 4 Sudeste 14 Nordeste 0 -- -- 86
2020-03-17 08:00:00 6.4 10 Sudeste 30 Sudeste 0 -- -- 77
2020-03-17 07:00:00 5 7 Sudeste 22 Sudeste 0.2 -- -- 91
2020-03-17 06:00:00 5.2 14 Sudeste 36 Este 0.4 -- -- 88
2020-03-17 05:00:00 5.3 14 Sudeste 26 Este 0.4 -- -- 88
2020-03-17 04:00:00 5.4 10 Sudeste 19 Este 0 -- -- 87
2020-03-17 03:00:00 5.1 8 Este 24 Este 0 -- -- 90
2020-03-17 02:00:00 4.9 15 Este 26 Este 0 -- -- 88
2020-03-17 01:00:00 5.1 13 Este 22 Este 0 -- -- 89
2020-03-17 00:00:00 5.1 8 Este 26 Nordeste 0.2 -- -- 92
2020-03-16 23:00:00 5.4 10 Nordeste 18 Nordeste 0.4 -- -- 92
2020-03-16 22:00:00 5.4 5 Norte 13 Noroeste 0.2 -- -- 90
2020-03-16 21:00:00 5.4 9 Noroeste 17 Norte 0 -- -- 85
2020-03-16 20:00:00 5.4 3 Nordeste 19 Este 0 -- -- 82
2020-03-16 19:00:00 6.6 7 Nordeste 36 Norte 0.4 -- -- 76
2020-03-16 18:00:00 8.1 14 Norte 49 Noroeste 0 -- -- 59
2020-03-16 17:00:00 9.6 26 Noroeste 41 Noroeste 0 -- -- 48
2020-03-16 16:00:00 8.9 27 Noroeste 47 Noroeste 0 -- -- 51
2020-03-16 15:00:00 6.9 16 Noroeste 41 Oeste 0 -- -- 67
2020-03-16 14:00:00 7.9 17 Noroeste 41 Norte 0 -- -- 55
2020-03-16 13:00:00 8.1 23 Noroeste 39 Noroeste 0 -- -- 51
2020-03-16 12:00:00 7.8 20 Noroeste 41 Noroeste 0 -- -- 51
2020-03-16 11:00:00 6.7 21 Noroeste 42 Noroeste 0 -- -- 57
2020-03-16 10:00:00 5.8 22 Noroeste 35 Oeste 0 -- -- 59
2020-03-16 09:00:00 4.2 8 Oeste 18 Oeste 0 -- -- 76
2020-03-16 08:00:00 2.5 4 Oeste 10 Sudoeste 0 -- -- 81
2020-03-16 07:00:00 2.6 4 Noroeste 15 Oeste 0 -- -- 77
2020-03-16 06:00:00 3.4 11 Noroeste 22 Oeste 0 -- -- 70
2020-03-16 05:00:00 4 10 Noroeste 23 Oeste 0 -- -- 65
2020-03-16 04:00:00 4.6 16 Noroeste 32 Noroeste 0 -- -- 64
2020-03-16 03:00:00 5.1 11 Oeste 34 Noroeste 0 -- -- 64
2020-03-16 02:00:00 6.6 18 Noroeste 41 Oeste 0 -- -- 60
2020-03-16 01:00:00 8.4 27 Noroeste 45 Noroeste 0 -- -- 55
2020-03-16 00:00:00 10.4 24 Noroeste 36 Oeste 0 -- -- 64
2020-03-15 23:00:00 12.4 21 Noroeste 33 Oeste 0 -- -- 54
2020-03-15 22:00:00 13.3 17 Noroeste 31 Noroeste 0 -- -- 51
2020-03-15 21:00:00 13.8 15 Noroeste 25 Oeste 0 -- -- 63
2020-03-15 20:00:00 14.8 10 Noroeste 32 Noroeste 0 -- -- 64
2020-03-15 19:00:00 17.2 15 Noroeste 41 Norte 0 -- -- 57
2020-03-15 18:00:00 18.5 13 Noroeste 26 Noroeste 0 -- -- 50
2020-03-15 17:00:00 18.3 21 Noroeste 37 Noroeste 0 -- -- 41
2020-03-15 16:00:00 23.7 20 Sudoeste 34 Oeste 0 -- -- 30
2020-03-15 15:00:00 22.4 15 Oeste 44 Sudoeste 0 -- -- 34
2020-03-15 14:00:00 23 15 Sudoeste 26 Oeste 0 -- -- 38
2020-03-15 13:00:00 21.1 12 Sudoeste 24 Oeste 0 -- -- 42
2020-03-15 12:00:00 19.9 12 Oeste 21 Oeste 0 -- -- 45
2020-03-15 11:00:00 17.8 6 Sur 15 Sudeste 0 -- -- 59
2020-03-15 10:00:00 16.1 11 Sudeste 19 Sudeste 0 -- -- 65
2020-03-15 09:00:00 14.6 10 Sudeste 21 Sudeste 0 -- -- 70
2020-03-15 08:00:00 13.7 14 Sudeste 22 Sudeste 0 -- -- 73
2020-03-15 07:00:00 14.9 2 Sudeste 12 Sudeste 0 -- -- 64
2020-03-15 06:00:00 15.4 9 Sudeste 19 Sudeste 0 -- -- 62
2020-03-15 05:00:00 15.1 10 Sudeste 15 Sudeste 0 -- -- 62
2020-03-15 04:00:00 14.9 2 Sur 5 Sur 0 -- -- 59
2020-03-15 03:00:00 15.4 0 Calma 6 Sudeste 0 -- -- 59
2020-03-15 02:00:00 15.7 0 Calma 6 Sudeste 0 -- -- 59
2020-03-15 01:00:00 16 5 Sudeste 8 Sudeste 0 -- -- 61
2020-03-15 00:00:00 15.6 4 Sudeste 6 Sudeste 0 -- -- 61
2020-03-14 23:00:00 16.6 2 Sudeste 8 Nordeste 0 -- -- 58
2020-03-14 22:00:00 17.7 8 Nordeste 13 Nordeste 0 -- -- 56
2020-03-14 21:00:00 17.7 8 Nordeste 12 Nordeste 0 -- -- 50
2020-03-14 20:00:00 18.9 4 Nordeste 11 Norte 0 -- -- 47
2020-03-14 19:00:00 21 8 Norte 15 Norte 0 -- -- 43
2020-03-14 18:00:00 22.2 8 Noroeste 15 Norte 0 -- -- 40
2020-03-14 17:00:00 23 7 Norte 21 Noroeste 0 -- -- 39
2020-03-14 16:00:00 22.9 7 Norte 19 Nordeste 0 -- -- 42
2020-03-14 15:00:00 22.5 7 Norte 16 Nordeste 0 -- -- 53
2020-03-14 14:00:00 21.8 7 Norte 17 Norte 0 -- -- 59
2020-03-14 13:00:00 20.8 6 Nordeste 12 Nordeste 0 -- -- 63
2020-03-14 12:00:00 18.7 6 Nordeste 14 Norte 0 -- -- 71
2020-03-14 11:00:00 18.1 6 Sur 17 Sur 0 -- -- 72
2020-03-14 10:00:00 14 8 Sur 12 Sudoeste 0 -- -- 88
2020-03-14 09:00:00 11.7 2 Oeste 13 Norte 0 -- -- 91
2020-03-14 08:00:00 11.8 11 Nordeste 17 Nordeste 0 -- -- 93
2020-03-14 07:00:00 12.5 8 Sudeste 17 Sudeste 0 -- -- 91
2020-03-14 06:00:00 12.4 5 Sudeste 9 Sudeste 0 -- -- 91
2020-03-14 05:00:00 11.8 4 Sur 8 Sur 0 -- -- 92
2020-03-14 04:00:00 11.9 6 Sur 10 Sur 0 -- -- 90
2020-03-14 03:00:00 12.2 0 Calma 8 Sur 0 -- -- 87
2020-03-14 02:00:00 12.2 6 Sur 11 Sur 0 -- -- 87
2020-03-14 01:00:00 12.2 5 Sur 9 Sur 0 -- -- 85
2020-03-14 00:00:00 12.8 5 Sur 9 Sur 0 -- -- 81
2020-03-13 23:00:00 13.3 5 Sur 10 Sur 0 -- -- 77
2020-03-13 22:00:00 13.7 3 Sur 7 Sur 0 -- -- 74
2020-03-13 21:00:00 14.7 0 Calma 8 Noroeste 0 -- -- 69
2020-03-13 20:00:00 15.9 5 Noroeste 12 Oeste 0 -- -- 63
2020-03-13 19:00:00 17.9 5 Oeste 12 Noroeste 0 -- -- 54
2020-03-13 18:00:00 18.1 8 Noroeste 22 Noroeste 0 -- -- 49
2020-03-13 17:00:00 20.5 11 Noroeste 21 Noroeste 0 -- -- 47
2020-03-13 16:00:00 21.1 6 Noroeste 18 Noroeste 0 -- -- 47
2020-03-13 15:00:00 20.3 9 Norte 22 Noroeste 0 -- -- 52
2020-03-13 14:00:00 20.3 11 Norte 20 Norte 0 -- -- 52
2020-03-13 13:00:00 19.5 11 Nordeste 19 Nordeste 0 -- -- 54
2020-03-13 12:00:00 19 9 Norte 16 Norte 0 -- -- 57
2020-03-13 11:00:00 17.7 5 Norte 12 Norte 0 -- -- 61
2020-03-13 10:00:00 14.9 3 Noroeste 17 Nordeste 0 -- -- 69
2020-03-13 09:00:00 13.9 8 Norte 19 Nordeste 0 -- -- 69
2020-03-13 08:00:00 13.7 4 Sudeste 7 Sur 0 -- -- 72
2020-03-13 07:00:00 13.7 4 Sur 9 Sur 0 -- -- 71
2020-03-13 06:00:00 14 5 Sur 8 Sur 0 -- -- 70
2020-03-13 05:00:00 14.1 4 Sur 9 Sur 0 -- -- 68
2020-03-13 04:00:00 14.4 5 Sur 9 Sur 0 -- -- 65
2020-03-13 03:00:00 15 4 Sudeste 8 Sur 0 -- -- 63
2020-03-13 02:00:00 15 4 Sur 8 Sur 0 -- -- 61
2020-03-13 01:00:00 15.5 3 Sur 6 Sudeste 0 -- -- 58
2020-03-13 00:00:00 16.3 4 Sudeste 7 Oeste 0 -- -- 54
2020-03-12 23:00:00 17.3 3 Noroeste 6 Norte 0 -- -- 51
2020-03-12 22:00:00 18 0 Calma 8 Oeste 0 -- -- 45
2020-03-12 21:00:00 19 0 Calma 5 Noroeste 0 -- -- 40
2020-03-12 20:00:00 19.9 2 Oeste 13 Oeste 0 -- -- 36
2020-03-12 19:00:00 22 6 Oeste 21 Oeste 0 -- -- 31
2020-03-12 18:00:00 25.6 17 Sudoeste 26 Sudoeste 0 -- -- 23
2020-03-12 17:00:00 27.5 19 Sudoeste 30 Sudoeste 0 -- -- 18
2020-03-12 16:00:00 27.6 16 Sudoeste 28 Sur 0 -- -- 20
2020-03-12 15:00:00 26.1 17 Sur 23 Sudoeste 0 -- -- 23
2020-03-12 14:00:00 25 18 Sur 33 Sudoeste 0 -- -- 23
2020-03-12 13:00:00 25 19 Sur 28 Sur 0 -- -- 26
2020-03-12 12:00:00 24.6 11 Sur 20 Sudeste 0 -- -- 26
2020-03-12 11:00:00 22 11 Sudeste 20 Sudeste 0 -- -- 30
2020-03-12 10:00:00 19.9 12 Sudeste 22 Sudeste 0 -- -- 35
2020-03-12 09:00:00 18.7 6 Sudeste 15 Sudeste 0 -- -- 32
2020-03-12 08:00:00 15.6 2 Sudeste 13 Sudeste 0 -- -- 41
2020-03-12 07:00:00 18.1 11 Sudeste 17 Sudeste 0 -- -- 33
2020-03-12 06:00:00 18.3 12 Sudeste 19 Sudeste 0 -- -- 32
2020-03-12 05:00:00 16.8 10 Sudeste 18 Este 0 -- -- 34
2020-03-12 04:00:00 20.3 18 Sudeste 38 Sudeste 0 -- -- 25
2020-03-12 03:00:00 20.8 27 Sudeste 38 Sudeste 0 -- -- 29
2020-03-12 02:00:00 21.3 26 Sudeste 38 Sudeste 0 -- -- 25
2020-03-12 01:00:00 21.6 26 Sudeste 35 Sudeste 0 -- -- 27
2020-03-12 00:00:00 21.9 19 Sudeste 31 Sudeste 0 -- -- 26
2020-03-11 23:00:00 22.9 17 Sudeste 24 Sudeste 0 -- -- 25
2020-03-11 22:00:00 23.2 11 Sudeste 15 Este 0 -- -- 23
2020-03-11 21:00:00 23.3 10 Sudeste 12 Sudeste 0 -- -- 25
2020-03-11 20:00:00 22.8 5 Sudeste 18 Este 0 -- -- 31
2020-03-11 19:00:00 23.7 12 Este 16 Este 0 -- -- 33
2020-03-11 18:00:00 25.1 7 Nordeste 15 Nordeste 0 -- -- 30
2020-03-11 17:00:00 27 10 Nordeste 18 Nordeste 0 -- -- 27
2020-03-11 16:00:00 26.8 9 Nordeste 18 Norte 0 -- -- 28
2020-03-11 15:00:00 27.9 6 Nordeste 15 Nordeste 0 -- -- 24
2020-03-11 14:00:00 27.4 4 Sudeste 20 Sudeste 0 -- -- 26
2020-03-11 13:00:00 26.8 11 Sur 20 Sur 0 -- -- 21
2020-03-11 12:00:00 25.2 10 Sur 17 Sudeste 0 -- -- 28
2020-03-11 11:00:00 22.5 8 Sur 15 Sur 0 -- -- 37
2020-03-11 10:00:00 19.4 3 Este 13 Sudeste 0 -- -- 41
2020-03-11 09:00:00 17.6 6 Sudeste 14 Sudeste 0 -- -- 40
2020-03-11 08:00:00 14 2 Nordeste 13 Sudeste 0 -- -- 50
2020-03-11 07:00:00 14.5 8 Sur 19 Sudeste 0 -- -- 48
2020-03-11 06:00:00 14.9 3 Norte 12 Sudeste 0 -- -- 45
2020-03-11 05:00:00 17 6 Este 11 Este 0 -- -- 39
2020-03-11 04:00:00 16.9 5 Sudeste 8 Sudeste 0 -- -- 37
2020-03-11 03:00:00 17.8 2 Sur 7 Sudeste 0 -- -- 35
2020-03-11 02:00:00 17.2 0 Calma 10 Este 0 -- -- 36
2020-03-11 01:00:00 17.5 4 Sudeste 12 Este 0 -- -- 34
2020-03-11 00:00:00 17.7 0 Calma 6 Este 0 -- -- 35
2020-03-10 23:00:00 18.6 4 Este 11 Este 0 -- -- 33
2020-03-10 22:00:00 19.3 4 Nordeste 12 Este 0 -- -- 31
2020-03-10 21:00:00 19.9 0 Calma 10 Este 0 -- -- 30
2020-03-10 20:00:00 20.7 9 Este 10 Este 0 -- -- 28
2020-03-10 19:00:00 23 5 Este 8 Norte 0 -- -- 25
2020-03-10 18:00:00 24.2 5 Norte 12 Norte 0 -- -- 23
2020-03-10 17:00:00 24.6 5 Norte 14 Noroeste 0 -- -- 23
2020-03-10 16:00:00 23.9 6 Nordeste 13 Norte 0 -- -- 25
2020-03-10 15:00:00 24.3 6 Norte 14 Nordeste 0 -- -- 24
2020-03-10 14:00:00 23.8 6 Sudoeste 16 Sur 0 -- -- 25
2020-03-10 13:00:00 22.2 9 Sudeste 19 Sudeste 0 -- -- 27
2020-03-10 12:00:00 20.3 11 Sur 24 Sudeste 0 -- -- 30
2020-03-10 11:00:00 17.8 15 Sudeste 24 Sudeste 0 -- -- 33
2020-03-10 10:00:00 15.9 10 Sur 19 Sudeste 0 -- -- 39
2020-03-10 09:00:00 13.2 6 Sudeste 15 Este 0 -- -- 43
2020-03-10 08:00:00 11.5 10 Sudeste 14 Sudeste 0 -- -- 44
2020-03-10 07:00:00 10.5 5 Nordeste 11 Nordeste 0 -- -- 48
2020-03-10 06:00:00 11 0 Calma 10 Nordeste 0 -- -- 46
2020-03-10 05:00:00 11.2 4 Norte 6 Norte 0 -- -- 44
2020-03-10 04:00:00 11.4 0 Calma 8 Norte 0 -- -- 43
2020-03-10 03:00:00 12.2 4 Nordeste 10 Nordeste 0 -- -- 41
2020-03-10 02:00:00 12.7 6 Nordeste 8 Nordeste 0 -- -- 38
2020-03-10 01:00:00 13.4 4 Norte 6 Nordeste 0 -- -- 36
2020-03-10 00:00:00 13.5 3 Norte 5 Norte 0 -- -- 36
2020-03-09 23:00:00 13.7 4 Norte 6 Norte 0 -- -- 36
2020-03-09 22:00:00 13.9 0 Calma 6 Norte 0 -- -- 36
2020-03-09 21:00:00 14.3 3 Norte 13 Norte 0 -- -- 38
2020-03-09 20:00:00 14.9 9 Norte 14 Norte 0 -- -- 39
2020-03-09 19:00:00 17.1 11 Norte 18 Norte 0 -- -- 33
2020-03-09 18:00:00 18.3 11 Norte 24 Noroeste 0 -- -- 30
2020-03-09 17:00:00 18.5 11 Noroeste 23 Noroeste 0 -- -- 30
2020-03-09 16:00:00 18.1 12 Noroeste 21 Norte 0 -- -- 34
2020-03-09 15:00:00 17.2 11 Noroeste 26 Noroeste 0 -- -- 39
2020-03-09 14:00:00 15.8 12 Noroeste 27 Noroeste 0 -- -- 43
2020-03-09 13:00:00 15.2 15 Norte 24 Noroeste 0 -- -- 39
2020-03-09 12:00:00 13.2 14 Noroeste 22 Noroeste 0 -- -- 66
2020-03-09 11:00:00 11.2 10 Noroeste 20 Noroeste 0 -- -- 75
2020-03-09 10:00:00 8.8 6 Noroeste 12 Noroeste 0 -- -- 88
2020-03-09 09:00:00 6.7 4 Sur 13 Sur 0 -- -- 98
2020-03-09 08:00:00 6.4 6 Sur 11 Sudeste 0 -- -- 97
2020-03-09 07:00:00 6.7 5 Sur 12 Sur 0 -- -- 96
2020-03-09 06:00:00 7.2 0 Calma 6 Noroeste 0 -- -- 93
2020-03-09 05:00:00 7.8 2 Oeste 6 Oeste 0 -- -- 92
2020-03-09 04:00:00 8.4 0 Calma 4 Sudoeste 0 -- -- 86
2020-03-09 03:00:00 9 3 Noroeste 6 Noroeste 0 -- -- 81
2020-03-09 02:00:00 9.5 3 Noroeste 9 Noroeste 0 -- -- 71
2020-03-09 01:00:00 10.1 0 Calma 6 Norte 0 -- -- 68
2020-03-09 00:00:00 10.2 2 Norte 6 Noroeste 0 -- -- 67
2020-03-08 23:00:00 10.8 3 Sudoeste 5 Norte 0 -- -- 64
2020-03-08 22:00:00 11.7 2 Oeste 9 Oeste 0 -- -- 57
2020-03-08 21:00:00 12.5 7 Norte 19 Noroeste 0 -- -- 51
2020-03-08 20:00:00 13.7 8 Noroeste 12 Norte 0 -- -- 42
2020-03-08 19:00:00 15.5 8 Norte 22 Noroeste 0 -- -- 37
2020-03-08 18:00:00 17 16 Noroeste 23 Noroeste 0 -- -- 31
2020-03-08 17:00:00 17.3 14 Noroeste 25 Noroeste 0 -- -- 31
2020-03-08 16:00:00 18.8 10 Noroeste 22 Noroeste 0 -- -- 29
2020-03-08 15:00:00 18.3 10 Oeste 18 Oeste 0 -- -- 27
2020-03-08 14:00:00 17.4 6 Noroeste 17 Sudoeste 0 -- -- 33
2020-03-08 13:00:00 16.3 7 Oeste 16 Sudoeste 0 -- -- 36
2020-03-08 12:00:00 14.7 9 Oeste 15 Oeste 0 -- -- 42
2020-03-08 11:00:00 13.3 5 Noroeste 10 Oeste 0 -- -- 47
2020-03-08 10:00:00 12.8 3 Sur 7 Sur 0 -- -- 47
2020-03-08 09:00:00 8.9 6 Sudeste 8 Sudeste 0 -- -- 55
2020-03-08 08:00:00 8.6 2 Noroeste 6 Nordeste 0 -- -- 54
2020-03-08 07:00:00 8.7 0 Calma 8 Sudeste 0 -- -- 55
2020-03-08 06:00:00 9 0 Calma 5 Este 0 -- -- 53
2020-03-08 05:00:00 9.2 0 Calma 3 Norte 0 -- -- 49
2020-03-08 04:00:00 9.8 2 Oeste 8 Sudeste 0 -- -- 48
2020-03-08 03:00:00 10.1 3 Sur 7 Sudeste 0 -- -- 48
2020-03-08 02:00:00 10.5 0 Calma 4 Sudeste 0 -- -- 47
2020-03-08 01:00:00 10.4 0 Calma 7 Sudeste 0 -- -- 46
2020-03-08 00:00:00 10.5 2 Sur 6 Norte 0 -- -- 46
2020-03-07 23:00:00 11.5 4 Norte 5 Norte 0 -- -- 42
2020-03-07 22:00:00 12.1 5 Nordeste 8 Nordeste 0 -- -- 41
2020-03-07 21:00:00 12.5 5 Nordeste 8 Nordeste 0 -- -- 40
2020-03-07 20:00:00 13.3 4 Nordeste 9 Norte 0 -- -- 38
2020-03-07 19:00:00 15.7 6 Norte 15 Nordeste 0 -- -- 33
2020-03-07 18:00:00 16.6 8 Norte 18 Norte 0 -- -- 30
2020-03-07 17:00:00 17.1 8 Norte 18 Nordeste 0 -- -- 28
2020-03-07 16:00:00 17.5 8 Norte 22 Nordeste 0 -- -- 27
2020-03-07 15:00:00 16.7 5 Este 19 Norte 0 -- -- 28
2020-03-07 14:00:00 15.7 10 Nordeste 20 Nordeste 0 -- -- 31
2020-03-07 13:00:00 15.4 7 Nordeste 16 Este 0 -- -- 30
2020-03-07 12:00:00 14 7 Este 14 Sur 0 -- -- 34
2020-03-07 11:00:00 12.5 7 Sur 17 Sur 0 -- -- 41
2020-03-07 10:00:00 9.6 8 Sur 13 Sudeste 0 -- -- 49
2020-03-07 09:00:00 5.8 4 Sudeste 5 Sur 0 -- -- 61
2020-03-07 08:00:00 4.8 2 Sur 4 Sur 0 -- -- 62
2020-03-07 07:00:00 5.1 0 Calma 8 Nordeste 0 -- -- 60
2020-03-07 06:00:00 5.3 7 Norte 9 Norte 0 -- -- 59
2020-03-07 05:00:00 5.7 5 Norte 13 Norte 0 -- -- 58
2020-03-07 04:00:00 5.8 6 Norte 13 Norte 0 -- -- 58
2020-03-07 03:00:00 6.2 3 Norte 12 Norte 0 -- -- 55
2020-03-07 02:00:00 6.6 5 Norte 16 Noroeste 0 -- -- 54
2020-03-07 01:00:00 7.3 11 Norte 22 Noroeste 0 -- -- 52
2020-03-07 00:00:00 8 13 Norte 21 Norte 0 -- -- 51
2020-03-06 23:00:00 8.6 9 Noroeste 23 Norte 0 -- -- 51
2020-03-06 22:00:00 9.6 12 Norte 26 Norte 0 -- -- 48
2020-03-06 21:00:00 10.8 20 Noroeste 39 Norte 0 -- -- 44
2020-03-06 20:00:00 11.1 23 Norte 41 Noroeste 0 -- -- 43
2020-03-06 19:00:00 13.1 26 Noroeste 42 Noroeste 0 -- -- 37
2020-03-06 18:00:00 14.4 21 Noroeste 44 Noroeste 0 -- -- 34
2020-03-06 17:00:00 14.7 33 Noroeste 54 Noroeste 0 -- -- 33
2020-03-06 16:00:00 14.5 32 Noroeste 51 Noroeste 0 -- -- 36
2020-03-06 15:00:00 14 25 Noroeste 49 Noroeste 0 -- -- 38
2020-03-06 14:00:00 12.9 23 Noroeste 50 Noroeste 0 -- -- 42
2020-03-06 13:00:00 12.8 22 Noroeste 48 Noroeste 0 -- -- 50
2020-03-06 12:00:00 11.4 30 Noroeste 50 Noroeste 0 -- -- 56
2020-03-06 11:00:00 10.1 25 Noroeste 44 Noroeste 0 -- -- 71
2020-03-06 10:00:00 8.7 23 Noroeste 42 Noroeste 0 -- -- 84
2020-03-06 09:00:00 8.4 18 Noroeste 33 Noroeste 0 -- -- 89
2020-03-06 08:00:00 7.7 13 Oeste 26 Oeste 0 -- -- 95
2020-03-06 07:00:00 6.8 9 Oeste 23 Oeste 0 -- -- 96
2020-03-06 06:00:00 6.1 4 Oeste 12 Sudoeste 0 -- -- 96
2020-03-06 05:00:00 5.8 5 Sudoeste 15 Oeste 0 -- -- 94
2020-03-06 04:00:00 5.9 6 Oeste 21 Oeste 0 -- -- 93
2020-03-06 03:00:00 6.1 7 Oeste 13 Oeste 0 -- -- 94
2020-03-06 02:00:00 6.3 3 Oeste 12 Sudoeste 0 -- -- 91
2020-03-06 01:00:00 7.3 9 Oeste 19 Oeste 0 -- -- 86
2020-03-06 00:00:00 7.9 12 Noroeste 24 Noroeste 0 -- -- 83
2020-03-05 23:00:00 8.8 12 Noroeste 23 Noroeste 0 -- -- 74
2020-03-05 22:00:00 9.7 12 Noroeste 27 Oeste 0 -- -- 71
2020-03-05 21:00:00 11.1 18 Noroeste 32 Noroeste 0 -- -- 66
2020-03-05 20:00:00 11.8 14 Noroeste 35 Noroeste 0 -- -- 67
2020-03-05 19:00:00 13.2 18 Noroeste 41 Oeste 0 -- -- 57
2020-03-05 18:00:00 14.5 23 Noroeste 44 Oeste 0 -- -- 53
2020-03-05 17:00:00 14.9 26 Noroeste 41 Noroeste 0 -- -- 49
2020-03-05 16:00:00 15.2 27 Noroeste 48 Noroeste 0 -- -- 55
2020-03-05 15:00:00 14.3 28 Noroeste 48 Oeste 0 -- -- 57
2020-03-05 14:00:00 13.8 28 Oeste 42 Oeste 0 -- -- 62
2020-03-05 13:00:00 13.4 24 Noroeste 41 Noroeste 0 -- -- 64
2020-03-05 12:00:00 11.3 28 Noroeste 50 Oeste 0 -- -- 81
2020-03-05 11:00:00 11.9 20 Oeste 30 Sudoeste 0 -- -- 89
2020-03-05 10:00:00 12.4 21 Sudoeste 34 Sudoeste 0 -- -- 84
2020-03-05 09:00:00 11.2 13 Sudoeste 19 Sur 0 -- -- 91
2020-03-05 08:00:00 10.9 12 Sur 18 Sur 0 -- -- 93
2020-03-05 07:00:00 11 12 Sudoeste 19 Sudoeste 0 -- -- 94
2020-03-05 06:00:00 11.1 11 Sudoeste 14 Sudoeste 0 -- -- 95
2020-03-05 05:00:00 11 4 Oeste 14 Oeste 0 -- -- 95
2020-03-05 04:00:00 10.9 8 Sudoeste 17 Sudoeste 0 -- -- 92
2020-03-05 03:00:00 11.7 8 Sudoeste 16 Sudoeste 0 -- -- 87
2020-03-05 02:00:00 12.2 3 Sudoeste 8 Sur 0 -- -- 84
2020-03-05 01:00:00 12.4 4 Sur 9 Sudoeste 0 -- -- 81
2020-03-05 00:00:00 12.1 5 Sur 10 Sudeste 0 -- -- 80